Time;durP1;ratioP1;P1;durP2;ratioP2;P2;SDS_P1;SDS_P2;PMS_P1;PMS_P2;Temp;Humidity;BMP_temperature;BMP_pressure;BME280_temperature;BME280_humidity;BME280_pressure;Samples;Min_cycle;Max_cycle;Signal;HPM_P1;HPM_P2
2024/02/13 00:00:28;;;;;;;5.22;2.25;;;;;;;3.17;100.00;95684.91;2090683;28;20056;-55
2024/02/13 00:01:29;;;;;;;6.93;2.50;;;;;;;3.17;100.00;95679.78;2091235;28;20072;-54
2024/02/13 00:02:31;;;;;;;8.52;2.42;;;;;;;3.17;100.00;95679.78;2090578;28;20051;-53
2024/02/13 00:03:32;;;;;;;6.38;2.13;;;;;;;3.16;100.00;95680.66;2090749;28;20060;-54
2024/02/13 00:04:33;;;;;;;6.05;1.98;;;;;;;3.16;100.00;95680.66;2090807;28;20045;-53
2024/02/13 00:05:35;;;;;;;5.90;1.90;;;;;;;3.14;100.00;95685.81;2090769;28;20056;-53
2024/02/13 00:06:37;;;;;;;5.75;2.25;;;;;;;3.16;100.00;95683.25;2090754;28;20044;-56
2024/02/13 00:07:38;;;;;;;5.45;2.03;;;;;;;3.16;100.00;95686.66;2089854;28;20045;-55
2024/02/13 00:08:39;;;;;;;5.60;2.25;;;;;;;3.16;100.00;95686.66;2089695;28;20055;-54
2024/02/13 00:09:43;;;;;;;9.48;2.25;;;;;;;3.16;100.00;95685.81;2090617;28;20405;-55
2024/02/13 00:10:45;;;;;;;7.20;2.30;;;;;;;3.16;100.00;95694.34;2090407;28;20045;-54
2024/02/13 00:11:46;;;;;;;4.07;2.00;;;;;;;3.17;100.00;95692.63;2090682;28;20048;-53
2024/02/13 00:12:48;;;;;;;7.50;2.03;;;;;;;3.18;100.00;95702.84;2090662;28;20369;-53
2024/02/13 00:13:49;;;;;;;4.25;1.73;;;;;;;3.19;100.00;95696.00;2090691;28;20473;-54
2024/02/13 00:14:51;;;;;;;5.45;2.17;;;;;;;3.17;100.00;95695.19;2089456;28;20036;-55
2024/02/13 00:15:54;;;;;;;6.00;2.10;;;;;;;3.18;100.00;95701.97;2090012;28;20040;-53
2024/02/13 00:16:58;;;;;;;4.60;1.83;;;;;;;3.18;100.00;95697.72;2090688;28;20472;-54
2024/02/13 00:18:03;;;;;;;4.10;2.20;;;;;;;3.16;100.00;95699.47;2090459;28;20052;-54
2024/02/13 00:19:04;;;;;;;4.47;1.80;;;;;;;3.16;100.00;95707.16;2090564;28;20036;-54
2024/02/13 00:20:08;;;;;;;6.45;2.05;;;;;;;3.15;100.00;95710.59;2090331;28;20047;-53
2024/02/13 00:21:09;;;;;;;4.53;1.80;;;;;;;3.15;100.00;95712.31;2090529;28;20068;-54
2024/02/13 00:22:11;;;;;;;7.05;2.00;;;;;;;3.15;100.00;95710.59;2090256;28;20043;-53
2024/02/13 00:23:13;;;;;;;4.65;2.08;;;;;;;3.15;100.00;95712.31;2090146;28;20045;-54
2024/02/13 00:24:16;;;;;;;6.25;1.98;;;;;;;3.15;100.00;95713.16;2090519;28;20045;-54
2024/02/13 00:25:18;;;;;;;4.38;2.03;;;;;;;3.14;100.00;95711.50;2090602;28;20045;-55
2024/02/13 00:26:19;;;;;;;6.05;2.05;;;;;;;3.13;100.00;95704.69;2090513;28;20366;-56
2024/02/13 00:27:20;;;;;;;8.90;2.03;;;;;;;3.12;100.00;95702.97;2091018;28;20500;-57
2024/02/13 00:28:21;;;;;;;4.22;2.03;;;;;;;3.11;100.00;95706.44;2090462;28;20053;-56
2024/02/13 00:29:22;;;;;;;5.10;2.38;;;;;;;3.11;100.00;95715.84;2090608;28;20048;-56
2024/02/13 00:30:23;;;;;;;3.65;1.73;;;;;;;3.08;100.00;95704.78;2090397;28;20036;-56
2024/02/13 00:31:25;;;;;;;4.75;1.75;;;;;;;3.10;100.00;95717.56;2090625;28;20049;-56
2024/02/13 00:32:26;;;;;;;6.03;2.15;;;;;;;3.11;100.00;95721.81;2090098;28;20393;-56
2024/02/13 00:33:27;;;;;;;8.65;2.47;;;;;;;3.10;100.00;95714.97;2090392;28;20049;-56
2024/02/13 00:34:28;;;;;;;5.10;1.60;;;;;;;3.06;100.00;95714.22;2090831;28;20029;-56
2024/02/13 00:35:30;;;;;;;6.53;2.05;;;;;;;3.08;100.00;95724.47;2090435;28;20067;-56
2024/02/13 00:36:32;;;;;;;4.85;1.70;;;;;;;3.05;100.00;95719.41;2090470;28;20052;-56
2024/02/13 00:37:33;;;;;;;9.38;1.60;;;;;;;3.05;100.00;95724.53;2090481;28;20045;-55
2024/02/13 00:38:35;;;;;;;5.50;1.90;;;;;;;3.02;100.00;95730.56;2090392;28;20049;-56
2024/02/13 00:39:37;;;;;;;5.50;1.80;;;;;;;3.00;100.00;95726.34;2090448;28;20500;-56
2024/02/13 00:40:38;;;;;;;8.85;2.72;;;;;;;3.01;100.00;95731.44;2090432;28;20055;-54
2024/02/13 00:41:41;;;;;;;6.63;1.80;;;;;;;2.98;100.00;95731.50;2090144;28;20049;-56
2024/02/13 00:42:42;;;;;;;2.42;1.10;;;;;;;2.95;100.00;95735.88;2090406;28;20041;-55
2024/02/13 00:43:44;;;;;;;10.68;2.65;;;;;;;2.96;100.00;95732.41;2090309;28;20041;-55
2024/02/13 00:44:45;;;;;;;8.10;1.90;;;;;;;2.94;100.00;95735.03;2090477;28;20045;-55
2024/02/13 00:45:47;;;;;;;6.53;2.30;;;;;;;2.96;100.00;95734.97;2090303;28;20041;-56
2024/02/13 00:46:52;;;;;;;6.65;2.08;;;;;;;2.93;100.00;95741.03;2090370;28;20420;-56
2024/02/13 00:47:53;;;;;;;6.43;1.70;;;;;;;2.94;100.00;95745.28;2090384;28;20390;-54
2024/02/13 00:48:55;;;;;;;4.38;1.70;;;;;;;2.95;100.00;95743.56;2090356;28;20040;-54
2024/02/13 00:49:58;;;;;;;6.10;2.05;;;;;;;2.96;100.00;95747.81;2090375;28;20029;-53
2024/02/13 00:50:59;;;;;;;7.57;1.85;;;;;;;2.96;100.00;95740.09;2090394;28;20417;-54
2024/02/13 00:52:01;;;;;;;8.32;2.30;;;;;;;2.94;100.00;95742.72;2090381;28;20041;-53
2024/02/13 00:53:02;;;;;;;4.85;1.63;;;;;;;2.93;100.00;95748.72;2090312;28;20036;-55
2024/02/13 00:54:03;;;;;;;10.85;2.15;;;;;;;2.93;100.00;95743.59;2090796;28;20044;-55
2024/02/13 00:55:05;;;;;;;3.97;1.58;;;;;;;2.91;100.00;95745.31;2090397;28;20103;-56
2024/02/13 00:56:08;;;;;;;6.45;2.00;;;;;;;2.92;100.00;95746.19;2090696;28;20734;-54
2024/02/13 00:57:09;;;;;;;7.72;2.30;;;;;;;2.91;100.00;95747.91;2089661;28;20041;-53
2024/02/13 00:58:10;;;;;;;8.52;2.60;;;;;;;2.87;100.00;95754.81;2089669;28;20045;-55
2024/02/13 00:59:12;;;;;;;5.95;2.10;;;;;;;2.87;100.00;95757.38;2090329;28;20492;-55
2024/02/13 01:00:14;;;;;;;9.10;2.20;;;;;;;2.83;100.00;95760.91;2090227;28;20043;-56
2024/02/13 01:01:15;;;;;;;5.13;1.92;;;;;;;2.80;100.00;95760.94;2090312;28;20053;-55
2024/02/13 01:02:19;;;;;;;4.88;2.28;;;;;;;2.79;100.00;95761.00;2090159;28;20385;-57
2024/02/13 01:03:20;;;;;;;4.28;1.60;;;;;;;2.74;100.00;95766.22;2090014;28;20056;-55
2024/02/13 01:04:22;;;;;;;4.85;2.05;;;;;;;2.72;100.00;95772.25;2090284;28;20044;-54
2024/02/13 01:05:23;;;;;;;8.23;2.25;;;;;;;2.68;100.00;95770.63;2090238;28;20052;-54
2024/02/13 01:06:24;;;;;;;5.72;1.80;;;;;;;2.62;100.00;95769.88;2090272;28;20044;-54
2024/02/13 01:07:25;;;;;;;5.07;2.03;;;;;;;2.58;100.00;95769.94;2090439;28;20044;-56
2024/02/13 01:08:26;;;;;;;6.68;1.98;;;;;;;2.53;100.00;95764.91;2090420;28;20028;-56
2024/02/13 01:09:27;;;;;;;5.10;1.67;;;;;;;2.49;100.00;95770.16;2090222;28;20068;-57
2024/02/13 01:10:28;;;;;;;5.30;2.30;;;;;;;2.46;100.00;95772.75;2090654;28;20047;-55
2024/02/13 01:11:29;;;;;;;6.22;2.25;;;;;;;2.42;100.00;95785.63;2090562;28;20056;-55
2024/02/13 01:12:30;;;;;;;4.70;2.00;;;;;;;2.40;100.00;95786.53;2090240;28;20048;-53
2024/02/13 01:13:32;;;;;;;5.88;1.73;;;;;;;2.36;100.00;95793.44;2090476;28;20048;-55
2024/02/13 01:14:33;;;;;;;4.63;1.77;;;;;;;2.32;100.00;95783.25;2090272;28;20052;-55
2024/02/13 01:15:34;;;;;;;6.57;2.20;;;;;;;2.31;100.00;95795.22;2090137;28;20059;-53
2024/02/13 01:16:35;;;;;;;8.05;2.50;;;;;;;2.29;100.00;95791.84;2090130;28;20052;-56
2024/02/13 01:17:36;;;;;;;5.43;2.45;;;;;;;2.30;100.00;95800.38;2090018;28;20049;-54
2024/02/13 01:18:37;;;;;;;7.72;2.47;;;;;;;2.30;100.00;95791.00;2090247;28;20049;-54
2024/02/13 01:19:38;;;;;;;5.13;2.00;;;;;;;2.29;100.00;95793.56;2089908;28;20507;-57
2024/02/13 01:20:40;;;;;;;8.07;2.00;;;;;;;2.28;100.00;95800.41;2089738;28;20056;-56
2024/02/13 01:21:43;;;;;;;5.25;2.10;;;;;;;2.26;100.00;95794.47;2090051;28;20041;-53
2024/02/13 01:22:44;;;;;;;6.28;2.00;;;;;;;2.28;100.00;95797.84;2089971;28;20049;-53
2024/02/13 01:23:46;;;;;;;3.67;1.80;;;;;;;2.29;100.00;95803.81;2090246;28;20040;-56
2024/02/13 01:24:47;;;;;;;4.95;1.63;;;;;;;2.27;100.00;95797.88;2089907;28;20051;-54
2024/02/13 01:25:49;;;;;;;5.13;2.08;;;;;;;2.28;100.00;95797.00;2089978;28;20512;-56
2024/02/13 01:26:50;;;;;;;4.07;1.75;;;;;;;2.26;100.00;95802.16;2090190;28;20412;-53
2024/02/13 01:27:51;;;;;;;5.03;1.60;;;;;;;2.30;100.00;95808.94;2090000;28;20056;-54
2024/02/13 01:28:52;;;;;;;7.32;2.30;;;;;;;2.30;100.00;95806.38;2090681;28;20051;-54
2024/02/13 01:29:54;;;;;;;6.35;2.10;;;;;;;2.31;100.00;95810.59;2090013;28;20088;-54
2024/02/13 01:30:57;;;;;;;3.80;1.90;;;;;;;2.29;100.00;95807.22;2089855;28;20469;-53
2024/02/13 01:31:58;;;;;;;8.18;2.00;;;;;;;2.30;100.00;95808.94;2089555;28;20037;-53
2024/02/13 01:32:59;;;;;;;3.67;1.50;;;;;;;2.31;100.00;95807.19;2090294;28;20041;-54
2024/02/13 01:34:00;;;;;;;4.15;1.98;;;;;;;2.33;100.00;95816.56;2089777;28;20503;-53
2024/02/13 01:35:01;;;;;;;7.47;2.20;;;;;;;2.33;100.00;95813.16;2090005;28;20052;-55
2024/02/13 01:36:04;;;;;;;5.20;2.25;;;;;;;2.31;100.00;95800.34;2089555;28;20124;-55
2024/02/13 01:37:05;;;;;;;4.50;2.15;;;;;;;2.37;100.00;95809.66;2089490;28;20504;-53
2024/02/13 01:38:06;;;;;;;4.53;1.73;;;;;;;2.34;100.00;95810.53;2090237;28;20043;-54
2024/02/13 01:39:09;;;;;;;5.32;1.80;;;;;;;2.37;100.00;95814.78;2090051;28;20089;-53
2024/02/13 01:40:11;;;;;;;6.28;2.10;;;;;;;2.37;100.00;95813.03;2090001;28;20477;-54
2024/02/13 01:41:12;;;;;;;4.78;2.10;;;;;;;2.38;100.00;95816.47;2089948;28;20509;-53
2024/02/13 01:42:13;;;;;;;5.75;2.20;;;;;;;2.40;100.00;95819.84;2089947;28;20041;-54
2024/02/13 01:43:14;;;;;;;5.72;1.90;;;;;;;2.39;100.00;95824.13;2090014;28;20037;-53
2024/02/13 01:44:15;;;;;;;7.05;2.33;;;;;;;2.40;100.00;95815.56;2090061;28;20059;-53
2024/02/13 01:45:16;;;;;;;7.03;2.38;;;;;;;2.41;100.00;95824.94;2090030;28;20393;-56
2024/02/13 01:46:19;;;;;;;5.38;2.00;;;;;;;2.44;100.00;95829.19;2090396;28;20072;-54
2024/02/13 01:47:21;;;;;;;6.70;2.20;;;;;;;2.45;100.00;95830.84;2089029;28;20045;-53
2024/02/13 01:48:25;;;;;;;4.82;1.50;;;;;;;2.45;100.00;95822.31;2088966;28;20048;-54
2024/02/13 01:49:28;;;;;;;5.95;2.13;;;;;;;2.45;100.00;95827.44;2089282;28;20539;-54
2024/02/13 01:50:29;;;;;;;6.35;2.33;;;;;;;2.44;100.00;95831.75;2089454;28;20064;-53
2024/02/13 01:51:32;;;;;;;4.88;1.80;;;;;;;2.43;100.00;95830.91;2089378;28;20052;-54
2024/02/13 01:52:33;;;;;;;5.32;2.00;;;;;;;2.42;100.00;95831.75;2081228;28;20497;-56
2024/02/13 01:53:35;;;;;;;8.10;2.28;;;;;;;2.43;100.00;95841.16;2089605;28;20045;-55
2024/02/13 01:54:36;;;;;;;6.05;1.95;;;;;;;2.42;100.00;95839.44;2081607;28;20501;-54
2024/02/13 01:55:37;;;;;;;5.38;1.73;;;;;;;2.41;100.00;95839.50;2081556;28;20045;-54
2024/02/13 01:56:39;;;;;;;4.03;1.80;;;;;;;2.38;100.00;95830.13;2081598;28;20050;-56
2024/02/13 01:57:40;;;;;;;6.40;2.13;;;;;;;2.40;100.00;95837.78;2088890;28;20060;-56
2024/02/13 01:58:41;;;;;;;16.77;2.58;;;;;;;2.38;100.00;95847.22;2097470;28;20047;-53
2024/02/13 01:59:42;;;;;;;3.90;1.67;;;;;;;2.34;100.00;95836.16;2090133;28;20448;-53
2024/02/13 02:00:43;;;;;;;6.93;2.55;;;;;;;2.32;100.00;95835.34;2089065;28;20048;-53
2024/02/13 02:01:44;;;;;;;6.15;2.00;;;;;;;2.32;100.00;95837.91;2089393;28;20044;-56
2024/02/13 02:02:46;;;;;;;7.95;2.58;;;;;;;2.31;100.00;95840.50;2089205;28;20064;-56
2024/02/13 02:03:48;;;;;;;6.13;2.20;;;;;;;2.30;100.00;95841.38;2089537;28;20057;-53
2024/02/13 02:04:49;;;;;;;7.72;2.13;;;;;;;2.29;100.00;95837.13;2089384;28;20037;-56
2024/02/13 02:05:51;;;;;;;8.30;2.25;;;;;;;2.28;100.00;95846.53;2081215;28;20037;-54
2024/02/13 02:06:52;;;;;;;7.20;2.25;;;;;;;2.27;100.00;95841.44;2089551;28;20041;-53
2024/02/13 02:07:53;;;;;;;7.70;2.20;;;;;;;2.24;100.00;95844.88;2089210;28;20057;-53
2024/02/13 02:08:56;;;;;;;9.15;2.45;;;;;;;2.24;100.00;95846.59;2081131;28;20033;-53
2024/02/13 02:09:58;;;;;;;4.65;1.98;;;;;;;2.20;100.00;95849.22;2089485;28;20049;-54
2024/02/13 02:10:59;;;;;;;5.07;1.77;;;;;;;2.21;100.00;95850.06;2089266;28;20048;-53
2024/02/13 02:12:00;;;;;;;8.23;2.50;;;;;;;2.20;100.00;95858.63;2089119;28;20492;-54
2024/02/13 02:13:01;;;;;;;7.57;1.85;;;;;;;2.20;100.00;95859.47;2090179;28;20025;-53
2024/02/13 02:14:03;;;;;;;6.18;2.25;;;;;;;2.20;100.00;95859.47;2090640;28;20056;-54
2024/02/13 02:15:04;;;;;;;6.20;2.15;;;;;;;2.24;100.00;95856.84;2089448;28;20119;-54
2024/02/13 02:16:07;;;;;;;7.95;2.30;;;;;;;2.25;100.00;95866.25;2090123;28;20049;-55
2024/02/13 02:17:08;;;;;;;3.83;1.88;;;;;;;2.27;100.00;95861.94;2089882;28;20044;-54
2024/02/13 02:18:10;;;;;;;5.80;1.90;;;;;;;2.27;100.00;95860.19;2090003;28;20041;-54
2024/02/13 02:19:11;;;;;;;4.65;1.90;;;;;;;2.30;100.00;95867.88;2089079;28;20068;-53
2024/02/13 02:20:12;;;;;;;5.60;1.80;;;;;;;2.33;100.00;95866.97;2089272;28;20064;-53
2024/02/13 02:21:14;;;;;;;5.43;1.75;;;;;;;2.37;100.00;95864.31;2089944;28;20056;-54
2024/02/13 02:22:15;;;;;;;4.55;2.03;;;;;;;2.38;100.00;95870.31;2089896;28;20041;-54
2024/02/13 02:23:19;;;;;;;5.80;2.28;;;;;;;2.39;100.00;95872.81;2089908;28;20493;-54
2024/02/13 02:24:21;;;;;;;6.57;2.45;;;;;;;2.39;100.00;95865.13;2089997;28;20503;-53
2024/02/13 02:25:22;;;;;;;6.45;1.75;;;;;;;2.42;100.00;95869.34;2089946;28;20080;-53
2024/02/13 02:26:25;;;;;;;5.55;2.03;;;;;;;2.40;100.00;95866.81;2090063;28;20049;-53
2024/02/13 02:27:26;;;;;;;5.68;1.88;;;;;;;2.41;100.00;95872.81;2089966;28;20519;-54
2024/02/13 02:28:27;;;;;;;7.68;2.28;;;;;;;2.44;100.00;95867.63;2089394;28;20044;-53
2024/02/13 02:29:28;;;;;;;6.70;2.22;;;;;;;2.45;100.00;95871.88;2088974;28;20060;-54
2024/02/13 02:30:30;;;;;;;9.18;2.15;;;;;;;2.45;100.00;95877.00;2089065;28;20056;-54
2024/02/13 02:31:31;;;;;;;9.30;2.13;;;;;;;2.42;100.00;95880.44;2090877;28;20049;-53
2024/02/13 02:32:33;;;;;;;6.32;2.00;;;;;;;2.42;100.00;95871.94;2091786;28;20492;-53
2024/02/13 02:33:34;;;;;;;6.55;2.05;;;;;;;2.45;100.00;95882.13;2091023;28;20496;-53
2024/02/13 02:34:35;;;;;;;5.75;1.80;;;;;;;2.48;100.00;95878.66;2091476;28;20056;-54
2024/02/13 02:35:36;;;;;;;6.75;2.00;;;;;;;2.50;100.00;95879.47;2091450;28;20412;-53
2024/02/13 02:36:37;;;;;;;8.40;1.83;;;;;;;2.52;100.00;95875.19;2091513;28;20036;-54
2024/02/13 02:37:40;;;;;;;6.40;1.88;;;;;;;2.54;100.00;95876.84;2091570;28;20056;-54
2024/02/13 02:38:41;;;;;;;3.88;1.67;;;;;;;2.55;100.00;95883.66;2091345;28;20053;-54
2024/02/13 02:39:42;;;;;;;7.35;1.58;;;;;;;2.55;100.00;95885.38;2091250;28;20060;-54
2024/02/13 02:40:44;;;;;;;8.82;2.53;;;;;;;2.58;100.00;95880.19;2091685;28;20080;-54
2024/02/13 02:41:45;;;;;;;5.03;1.67;;;;;;;2.57;100.00;95883.63;2091385;28;20052;-55
2024/02/13 02:42:51;;;;;;;5.28;1.95;;;;;;;2.56;100.00;95885.34;2091346;28;20052;-54
2024/02/13 02:43:53;;;;;;;5.50;1.95;;;;;;;2.58;99.72;95890.44;2091374;28;20045;-54
2024/02/13 02:44:54;;;;;;;4.78;1.70;;;;;;;2.57;99.66;95893.91;2091514;28;20048;-55
2024/02/13 02:45:55;;;;;;;5.85;1.80;;;;;;;2.55;99.96;95896.47;2091362;28;20056;-54
2024/02/13 02:46:56;;;;;;;4.90;1.50;;;;;;;2.56;99.88;95902.44;2091375;28;20477;-54
2024/02/13 02:47:57;;;;;;;5.20;1.80;;;;;;;2.57;99.93;95899.03;2091284;28;20052;-54
2024/02/13 02:48:58;;;;;;;4.13;1.67;;;;;;;2.59;99.89;95897.25;2091334;28;20041;-54
2024/02/13 02:50:00;;;;;;;6.00;2.00;;;;;;;2.64;99.32;95896.28;2091333;28;20041;-54
2024/02/13 02:51:01;;;;;;;4.75;2.00;;;;;;;2.65;99.15;95892.03;2091256;28;20040;-53
2024/02/13 02:52:02;;;;;;;5.13;1.70;;;;;;;2.67;99.15;95895.41;2091413;28;20072;-54
2024/02/13 02:53:03;;;;;;;8.23;1.88;;;;;;;2.65;99.23;95899.72;2091063;28;20049;-53
2024/02/13 02:54:05;;;;;;;6.90;2.08;;;;;;;2.67;99.17;95902.25;2090783;28;20059;-54
2024/02/13 02:55:07;;;;;;;4.63;1.35;;;;;;;2.66;98.94;95906.53;2082634;28;20429;-54
2024/02/13 02:56:10;;;;;;;7.15;1.80;;;;;;;2.68;99.29;95902.25;2090706;28;20028;-53
2024/02/13 02:57:11;;;;;;;5.57;1.90;;;;;;;2.68;99.10;95906.53;2090685;28;20044;-54
2024/02/13 02:58:13;;;;;;;8.70;2.15;;;;;;;2.67;99.45;95904.81;2091067;28;20107;-54
2024/02/13 02:59:16;;;;;;;3.13;1.50;;;;;;;2.67;99.08;95910.78;2090737;28;20041;-53
2024/02/13 03:00:18;;;;;;;4.75;1.60;;;;;;;2.66;99.37;95909.09;2091151;28;20049;-54
2024/02/13 03:01:19;;;;;;;5.35;1.70;;;;;;;2.65;99.46;95912.56;2090042;28;20049;-53
2024/02/13 03:02:20;;;;;;;5.70;1.63;;;;;;;2.64;99.15;95911.69;2089830;28;20051;-53
2024/02/13 03:03:22;;;;;;;5.13;1.73;;;;;;;2.64;99.37;95921.09;2091363;28;20056;-54
2024/02/13 03:04:23;;;;;;;5.57;1.65;;;;;;;2.62;99.71;95913.44;2091163;28;20424;-53
2024/02/13 03:05:26;;;;;;;7.57;1.60;;;;;;;2.67;99.67;95915.06;2090966;28;20053;-53
2024/02/13 03:06:29;;;;;;;5.65;1.52;;;;;;;2.65;99.55;95918.53;2091170;28;20059;-54
2024/02/13 03:07:30;;;;;;;5.57;1.67;;;;;;;2.65;99.31;95922.81;2090742;28;20067;-59
2024/02/13 03:08:31;;;;;;;5.05;2.08;;;;;;;2.67;99.61;95918.47;2091170;28;20052;-54
2024/02/13 03:09:32;;;;;;;10.75;1.98;;;;;;;2.71;99.27;95922.69;2091184;28;20052;-55
2024/02/13 03:10:35;;;;;;;9.77;2.22;;;;;;;2.73;99.18;95923.50;2091142;28;20040;-55
2024/02/13 03:11:36;;;;;;;6.03;1.60;;;;;;;2.72;99.07;95919.25;2091054;28;20048;-53
2024/02/13 03:12:37;;;;;;;4.85;1.58;;;;;;;2.72;99.28;95919.25;2091102;28;20040;-54
2024/02/13 03:13:39;;;;;;;7.10;2.00;;;;;;;2.71;99.22;95925.25;2091259;28;20518;-54
2024/02/13 03:14:40;;;;;;;6.40;1.50;;;;;;;2.74;98.99;95926.91;2090182;28;20049;-53
2024/02/13 03:15:41;;;;;;;6.03;1.90;;;;;;;2.76;99.26;95928.59;2091136;28;20060;-53
2024/02/13 03:16:45;;;;;;;7.40;1.63;;;;;;;2.77;98.93;95932.00;2091217;28;20649;-53
2024/02/13 03:17:47;;;;;;;4.75;1.90;;;;;;;2.82;98.53;95932.75;2091046;28;20420;-53
2024/02/13 03:18:50;;;;;;;4.97;1.65;;;;;;;2.84;98.50;95931.84;2091246;28;20076;-53
2024/02/13 03:19:51;;;;;;;5.15;1.67;;;;;;;2.88;97.54;95932.63;2090829;28;20048;-54
2024/02/13 03:20:52;;;;;;;4.90;1.60;;;;;;;2.94;97.04;95934.25;2091066;28;20393;-54
2024/02/13 03:21:53;;;;;;;3.22;1.38;;;;;;;2.98;96.90;95938.47;2090811;28;20048;-53
2024/02/13 03:22:54;;;;;;;5.10;1.75;;;;;;;3.04;96.13;95938.34;2091030;28;20045;-54
2024/02/13 03:23:55;;;;;;;5.35;1.92;;;;;;;3.06;95.91;95939.16;2090898;28;20412;-54
2024/02/13 03:24:57;;;;;;;6.35;1.60;;;;;;;3.09;95.77;95937.38;2091182;28;20120;-54
2024/02/13 03:25:58;;;;;;;6.75;1.40;;;;;;;3.11;95.73;95936.50;2091246;28;20045;-53
2024/02/13 03:27:00;;;;;;;5.30;1.25;;;;;;;3.10;95.20;95940.78;2091065;28;20477;-54
2024/02/13 03:28:03;;;;;;;5.50;1.50;;;;;;;3.12;95.30;95936.47;2090726;28;20469;-53
2024/02/13 03:29:04;;;;;;;6.15;1.63;;;;;;;3.12;95.39;95939.03;2090835;28;20438;-54
2024/02/13 03:30:07;;;;;;;4.70;1.52;;;;;;;3.13;95.24;95942.44;2091198;28;20017;-54
2024/02/13 03:31:09;;;;;;;6.97;1.75;;;;;;;3.15;95.24;95945.84;2090792;28;20049;-54
2024/02/13 03:32:11;;;;;;;4.68;1.40;;;;;;;3.14;95.08;95947.56;2090952;28;20372;-53
2024/02/13 03:33:12;;;;;;;5.68;1.30;;;;;;;3.15;94.91;95951.81;2091044;28;20052;-53
2024/02/13 03:34:13;;;;;;;6.93;1.42;;;;;;;3.15;94.67;95949.22;2090597;28;20052;-54
2024/02/13 03:35:14;;;;;;;4.75;1.35;;;;;;;3.15;94.95;95951.81;2091070;28;20393;-53
2024/02/13 03:36:19;;;;;;;4.82;1.50;;;;;;;3.16;94.72;95950.94;2090855;28;20051;-54
2024/02/13 03:37:20;;;;;;;4.25;1.20;;;;;;;3.16;94.38;95955.25;2090876;28;20056;-53
2024/02/13 03:38:21;;;;;;;4.90;1.25;;;;;;;3.16;94.77;95957.81;2090963;28;20060;-54
2024/02/13 03:39:23;;;;;;;6.50;1.30;;;;;;;3.16;94.06;95958.66;2091128;28;20062;-53
2024/02/13 03:40:24;;;;;;;5.82;1.58;;;;;;;3.17;94.57;95962.88;2090158;28;20097;-53
2024/02/13 03:41:25;;;;;;;5.28;1.63;;;;;;;3.17;94.11;95964.63;2090100;28;20049;-53
2024/02/13 03:42:26;;;;;;;7.80;1.45;;;;;;;3.17;94.73;95964.63;2090328;28;20063;-54
2024/02/13 03:43:27;;;;;;;8.95;1.67;;;;;;;3.18;94.69;95966.28;2090635;28;20496;-54
2024/02/13 03:44:29;;;;;;;7.28;2.20;;;;;;;3.16;94.82;95962.94;2090078;28;20037;-53
2024/02/13 03:45:30;;;;;;;5.72;1.50;;;;;;;3.14;94.55;95968.09;2090424;28;20037;-54
2024/02/13 03:46:31;;;;;;;3.42;1.50;;;;;;;3.14;94.24;95964.69;2090814;28;20041;-53
2024/02/13 03:47:33;;;;;;;4.85;1.80;;;;;;;3.16;94.29;95976.59;2091425;28;20409;-54
2024/02/13 03:48:34;;;;;;;4.82;1.73;;;;;;;3.16;94.41;95973.19;2090909;28;20052;-54
2024/02/13 03:49:35;;;;;;;6.82;1.67;;;;;;;3.16;94.62;95968.06;2090831;28;20044;-53
2024/02/13 03:50:36;;;;;;;6.63;1.67;;;;;;;3.14;94.25;95969.81;2090697;28;20048;-55
2024/02/13 03:51:38;;;;;;;6.05;1.90;;;;;;;3.15;94.14;95974.91;2090361;28;20053;-53
2024/02/13 03:52:39;;;;;;;6.10;1.60;;;;;;;3.15;94.22;95976.63;2090773;28;20049;-55
2024/02/13 03:53:40;;;;;;;5.22;1.60;;;;;;;3.13;94.66;95976.66;2091222;28;20053;-54
2024/02/13 03:54:42;;;;;;;4.75;1.33;;;;;;;3.14;94.54;95980.06;2090808;28;20052;-54
2024/02/13 03:55:43;;;;;;;9.00;2.20;;;;;;;3.15;94.32;95979.19;2090788;28;20045;-55
2024/02/13 03:56:44;;;;;;;10.18;1.63;;;;;;;3.11;94.40;95973.28;2090796;28;20053;-54
2024/02/13 03:57:45;;;;;;;6.95;1.60;;;;;;;3.14;94.34;95982.63;2090869;28;20397;-53
2024/02/13 03:58:46;;;;;;;4.18;1.20;;;;;;;3.11;94.48;95978.41;2090745;28;20068;-53
2024/02/13 03:59:47;;;;;;;3.63;1.67;;;;;;;3.12;94.87;95986.94;2090522;28;20053;-54
2024/02/13 04:00:48;;;;;;;7.40;1.63;;;;;;;3.10;94.34;95981.84;2090785;28;20413;-54
2024/02/13 04:01:49;;;;;;;3.80;1.30;;;;;;;3.11;94.63;95987.84;2090940;28;20056;-54
2024/02/13 04:02:51;;;;;;;5.10;1.35;;;;;;;3.08;94.72;95984.44;2090612;28;20057;-53
2024/02/13 04:03:52;;;;;;;5.60;1.40;;;;;;;3.08;94.46;95984.44;2090790;28;20503;-53
2024/02/13 04:04:53;;;;;;;5.05;1.60;;;;;;;3.07;94.96;95987.91;2090569;28;20049;-53
2024/02/13 04:05:55;;;;;;;4.18;1.10;;;;;;;3.06;94.48;95985.34;2090771;28;20036;-52
2024/02/13 04:06:57;;;;;;;6.45;1.45;;;;;;;3.05;94.43;95987.06;2090980;28;20041;-53
2024/02/13 04:07:58;;;;;;;5.72;1.45;;;;;;;3.04;94.99;95987.09;2090660;28;20029;-53
2024/02/13 04:09:02;;;;;;;7.00;1.67;;;;;;;3.03;94.87;95985.41;2090642;28;20392;-53
2024/02/13 04:10:04;;;;;;;6.53;2.03;;;;;;;3.03;95.10;95985.41;2090734;28;20049;-54
2024/02/13 04:11:05;;;;;;;7.47;1.35;;;;;;;3.02;95.13;95988.81;2091171;28;20422;-54
2024/02/13 04:12:09;;;;;;;4.47;1.90;;;;;;;3.02;94.81;95993.94;2091002;28;20044;-53
2024/02/13 04:13:10;;;;;;;4.95;1.75;;;;;;;3.00;95.12;95988.03;2090620;28;20037;-53
2024/02/13 04:14:12;;;;;;;7.70;1.50;;;;;;;3.01;95.11;95992.28;2090752;28;20056;-54
2024/02/13 04:15:13;;;;;;;4.28;1.67;;;;;;;3.00;95.04;95990.59;2089720;28;20056;-54
2024/02/13 04:16:15;;;;;;;7.35;1.70;;;;;;;3.00;95.12;95995.72;2091111;28;20049;-54
2024/02/13 04:17:17;;;;;;;6.13;1.77;;;;;;;3.01;95.12;95997.41;2090648;28;20059;-55
2024/02/13 04:18:19;;;;;;;9.40;2.13;;;;;;;2.98;94.92;96000.03;2090575;28;20059;-54
2024/02/13 04:19:20;;;;;;;4.88;1.42;;;;;;;2.98;95.15;95988.03;2090386;28;20424;-55
2024/02/13 04:20:21;;;;;;;5.13;1.40;;;;;;;2.96;95.08;95994.06;2090542;28;20041;-53
2024/02/13 04:21:22;;;;;;;7.43;1.75;;;;;;;2.96;95.24;95991.50;2090525;28;20044;-54
2024/02/13 04:22:23;;;;;;;2.95;1.40;;;;;;;2.96;95.24;95988.94;2091080;28;20055;-53
2024/02/13 04:23:24;;;;;;;6.47;1.65;;;;;;;2.96;95.52;95994.06;2090639;28;20051;-53
2024/02/13 04:24:26;;;;;;;6.70;1.65;;;;;;;2.96;95.05;95999.19;2090575;28;20060;-55
2024/02/13 04:25:27;;;;;;;4.25;1.40;;;;;;;2.97;95.50;95999.19;2090647;28;20051;-54
2024/02/13 04:26:28;;;;;;;6.30;1.30;;;;;;;2.97;95.37;95996.63;2090762;28;20037;-55
2024/02/13 04:27:29;;;;;;;6.35;1.52;;;;;;;2.96;95.06;95997.47;2090265;28;20049;-56
2024/02/13 04:28:30;;;;;;;5.75;1.65;;;;;;;2.97;95.38;96000.91;2090278;28;20401;-55
2024/02/13 04:29:32;;;;;;;4.18;1.60;;;;;;;2.96;95.42;96001.75;2090308;28;20060;-54
2024/02/13 04:30:40;;;;;;;6.47;1.58;;;;;;;2.96;95.31;95999.19;2089710;28;20039;-53
2024/02/13 04:31:42;;;;;;;5.50;1.83;;;;;;;2.95;95.64;95997.53;2089725;28;20527;-54
2024/02/13 04:32:44;;;;;;;7.25;1.98;;;;;;;2.93;95.47;95996.69;2090323;28;20045;-55
2024/02/13 04:33:45;;;;;;;7.18;1.33;;;;;;;2.93;95.78;96001.81;2090483;28;20040;-56
2024/02/13 04:34:46;;;;;;;8.43;1.95;;;;;;;2.91;96.15;95998.44;2090503;28;20041;-54
2024/02/13 04:35:47;;;;;;;6.57;1.45;;;;;;;2.90;95.73;96000.16;2090546;28;20040;-53
2024/02/13 04:36:48;;;;;;;5.97;2.00;;;;;;;2.87;96.18;95993.34;2090185;28;20409;-55
2024/02/13 04:37:51;;;;;;;7.05;1.95;;;;;;;2.87;96.40;96001.06;2090686;28;20045;-54
2024/02/13 04:38:52;;;;;;;9.60;1.50;;;;;;;2.86;96.34;95993.38;2089710;28;20045;-53
2024/02/13 04:39:53;;;;;;;6.60;2.22;;;;;;;2.85;96.15;95997.66;2089979;28;20428;-53
2024/02/13 04:40:54;;;;;;;7.90;2.15;;;;;;;2.86;96.25;95991.69;2090375;28;20064;-53
2024/02/13 04:41:56;;;;;;;5.00;1.52;;;;;;;2.86;96.27;95999.38;2090937;28;20060;-55
2024/02/13 04:42:57;;;;;;;6.43;1.42;;;;;;;2.87;96.55;96008.75;2090432;28;20048;-55
2024/02/13 04:43:58;;;;;;;6.15;1.60;;;;;;;2.87;96.75;96002.78;2090441;28;20072;-55
2024/02/13 04:45:00;;;;;;;5.05;1.70;;;;;;;2.85;96.32;96004.50;2090403;28;20503;-56
2024/02/13 04:46:02;;;;;;;7.40;2.13;;;;;;;2.83;96.37;96009.69;2090853;28;20409;-56
2024/02/13 04:47:04;;;;;;;10.90;1.88;;;;;;;2.83;96.46;95998.56;2090452;28;20037;-55
2024/02/13 04:48:07;;;;;;;8.60;2.03;;;;;;;2.80;96.89;96004.59;2090472;28;20045;-56
2024/02/13 04:49:09;;;;;;;8.50;1.85;;;;;;;2.79;97.12;96002.06;2090208;28;20044;-53
2024/02/13 04:50:10;;;;;;;7.47;1.95;;;;;;;2.74;97.07;96004.69;2090446;28;20048;-57
2024/02/13 04:51:12;;;;;;;8.30;2.05;;;;;;;2.69;97.20;95991.09;2090318;28;20040;-55